createdAt,value
2023-01-02T00:00:54.650Z,92.41
2023-01-02T00:01:52.459Z,91.75
2023-01-02T00:02:49.196Z,91.53
2023-01-02T00:03:46.051Z,91.74
2023-01-02T00:04:42.972Z,91.12
2023-01-02T00:05:39.726Z,91.20
2023-01-02T00:06:37.678Z,90.62
2023-01-02T00:07:34.294Z,90.33
2023-01-02T00:08:31.022Z,90.37
2023-01-02T00:09:27.616Z,90.71
2023-01-02T00:10:24.419Z,91.81
2023-01-02T00:11:21.091Z,92.50
2023-01-02T00:12:17.698Z,92.30
2023-01-02T00:13:14.414Z,92.91
2023-01-02T00:14:11.113Z,92.13
2023-01-02T00:15:08.105Z,91.54
2023-01-02T00:16:05.238Z,91.46
2023-01-02T00:17:01.907Z,90.91
2023-01-02T00:17:58.430Z,90.45
2023-01-02T00:18:55.044Z,90.14
2023-01-02T00:19:51.742Z,89.46
2023-01-02T00:20:48.309Z,89.72
2023-01-02T00:21:44.921Z,89.66
2023-01-02T00:22:41.485Z,89.26
2023-01-02T00:23:38.256Z,89.79
2023-01-02T00:24:34.821Z,89.18
2023-01-02T00:25:34.787Z,89.84
2023-01-02T00:26:31.410Z,91.10
2023-01-02T00:27:28.029Z,91.49
2023-01-02T00:28:24.818Z,92.77
2023-01-02T00:29:21.407Z,92.54
2023-01-02T00:30:18.262Z,91.86
2023-01-02T00:31:14.839Z,91.47
2023-01-02T00:32:11.538Z,91.77
2023-01-02T00:33:08.143Z,91.58
2023-01-02T00:34:04.788Z,90.90
2023-01-02T00:35:01.347Z,91.59
2023-01-02T00:35:57.938Z,91.28
2023-01-02T00:36:54.562Z,91.78
2023-01-02T00:37:52.521Z,92.25
2023-01-02T00:38:49.240Z,92.17
2023-01-02T00:39:45.812Z,92.40
2023-01-02T00:40:42.500Z,91.69
2023-01-02T00:41:39.169Z,91.78
2023-01-02T00:42:35.774Z,91.48
2023-01-02T00:43:32.587Z,92.66
2023-01-02T00:44:29.143Z,91.40
2023-01-02T00:45:25.948Z,91.57
2023-01-02T00:46:23.389Z,91.43
2023-01-02T00:47:20.061Z,91.88
2023-01-02T00:48:16.619Z,92.11
2023-01-02T00:49:13.177Z,92.27
2023-01-02T00:50:09.717Z,93.57
2023-01-02T00:51:06.534Z,93.75
2023-01-02T00:52:03.333Z,93.88
2023-01-02T00:52:59.901Z,94.61
2023-01-02T00:53:56.512Z,94.51
2023-01-02T00:54:53.061Z,94.85
2023-01-02T00:55:49.640Z,94.87
2023-01-02T00:56:46.199Z,94.19
2023-01-02T00:57:42.774Z,94.19
2023-01-02T00:58:39.382Z,94.37
2023-01-02T00:59:35.929Z,94.30
2023-01-02T01:00:32.880Z,93.23
2023-01-02T01:01:29.655Z,93.77
2023-01-02T01:02:26.467Z,92.72
2023-01-02T01:03:23.153Z,93.46
2023-01-02T01:04:19.764Z,93.96
2023-01-02T01:05:16.336Z,93.99
2023-01-02T01:06:14.545Z,94.17
2023-01-02T01:07:11.264Z,93.54
2023-01-02T01:08:08.177Z,93.84
2023-01-02T01:09:04.731Z,93.77
2023-01-02T01:10:01.525Z,94.44
2023-01-02T01:10:58.104Z,94.30
2023-01-02T01:11:55.253Z,94.92
2023-01-02T01:12:52.247Z,94.95
2023-01-02T01:13:48.867Z,95.96
2023-01-02T01:14:45.475Z,95.75
2023-01-02T01:15:42.128Z,95.84
2023-01-02T01:16:38.910Z,95.42
2023-01-02T01:17:35.613Z,95.59
2023-01-02T01:18:32.174Z,94.90
2023-01-02T01:19:36.180Z,95.33
2023-01-02T01:20:32.825Z,95.55
2023-01-02T01:21:29.463Z,96.05
2023-01-02T01:22:26.093Z,95.61
2023-01-02T01:23:23.323Z,95.30
2023-01-02T01:24:19.950Z,95.11
2023-01-02T01:25:16.785Z,95.47
2023-01-02T01:26:13.774Z,95.37
2023-01-02T01:27:10.438Z,95.72
2023-01-02T01:28:07.052Z,96.82
2023-01-02T01:29:03.676Z,97.04
2023-01-02T01:30:00.322Z,96.85
2023-01-02T01:31:27.431Z,97.16
2023-01-02T01:32:24.078Z,95.88
2023-01-02T01:33:20.698Z,96.01
2023-01-02T01:34:17.545Z,96.14
2023-01-02T01:35:14.198Z,95.62
2023-01-02T01:36:23.862Z,96.63
2023-01-02T01:37:20.390Z,96.75
2023-01-02T01:38:16.985Z,96.74
2023-01-02T01:39:13.641Z,96.85
2023-01-02T01:40:10.536Z,96.29
2023-01-02T01:41:08.487Z,97.22
2023-01-02T01:42:05.380Z,97.33
2023-01-02T01:43:01.943Z,97.34
2023-01-02T01:44:00.516Z,96.38
2023-01-02T01:44:57.140Z,97.37
2023-01-02T01:45:53.800Z,97.38
2023-01-02T01:46:50.406Z,98.03
2023-01-02T01:47:51.569Z,97.41
2023-01-02T01:48:53.390Z,97.17
2023-01-02T01:49:58.555Z,97.30
2023-01-02T01:50:58.139Z,97.25
2023-01-02T01:52:00.990Z,97.49
2023-01-02T01:53:03.761Z,96.98
2023-01-02T01:54:07.197Z,97.46
2023-01-02T01:55:12.813Z,97.04
2023-01-02T01:56:12.206Z,96.89
2023-01-02T01:57:33.557Z,97.11
2023-01-02T01:58:41.885Z,96.94
2023-01-02T01:59:40.216Z,95.75
2023-01-02T02:00:37.437Z,95.68
2023-01-02T02:01:34.274Z,95.51
2023-01-02T02:02:33.422Z,95.59
2023-01-02T02:03:32.227Z,96.17
2023-01-02T02:04:28.887Z,95.70
2023-01-02T02:05:29.383Z,94.96
2023-01-02T02:06:25.972Z,94.81
2023-01-02T02:07:23.285Z,94.90
2023-01-02T02:08:37.595Z,94.42
2023-01-02T02:09:49.914Z,93.70
2023-01-02T02:10:47.527Z,93.63
2023-01-02T02:11:44.884Z,93.27
2023-01-02T02:12:41.563Z,94.34
2023-01-02T02:13:38.430Z,94.29
2023-01-02T02:14:34.982Z,94.96
2023-01-02T02:15:43.731Z,95.17
2023-01-02T02:16:46.462Z,95.75
2023-01-02T02:17:56.387Z,95.87
2023-01-02T02:19:11.190Z,95.53
2023-01-02T02:20:33.789Z,95.61
2023-01-02T02:21:54.453Z,95.19
2023-01-02T02:23:18.004Z,95.74
2023-01-02T02:24:40.669Z,95.31
2023-01-02T02:26:13.670Z,95.27
2023-01-02T02:27:28.589Z,94.73
2023-01-02T02:28:43.412Z,94.78
2023-01-02T02:29:50.180Z,94.42
2023-01-02T02:30:59.707Z,94.54
2023-01-02T02:32:15.208Z,94.24
2023-01-02T02:33:30.247Z,93.84
2023-01-02T02:34:45.711Z,92.72
2023-01-02T02:36:19.460Z,92.32
2023-01-02T02:37:25.518Z,91.72
2023-01-02T02:39:00.967Z,93.06
2023-01-02T02:40:26.211Z,93.54
2023-01-02T02:41:36.106Z,94.94
2023-01-02T02:42:48.158Z,93.88
2023-01-02T02:44:32.459Z,93.89
2023-01-02T02:45:54.992Z,93.88
2023-01-02T02:47:09.766Z,94.26
2023-01-02T02:48:28.110Z,95.03
2023-01-02T02:49:27.424Z,95.58
2023-01-02T02:50:42.853Z,95.31
2023-01-02T02:51:56.741Z,96.57
2023-01-02T02:53:09.129Z,96.03
2023-01-02T02:54:12.756Z,96.78
2023-01-02T02:55:17.044Z,97.16
2023-01-02T02:56:16.944Z,97.23
2023-01-02T02:57:15.352Z,97.09
2023-01-02T02:58:14.650Z,97.44
2023-01-02T02:59:11.857Z,98.39
2023-01-02T03:00:14.378Z,97.41
2023-01-02T03:01:15.886Z,97.40
2023-01-02T03:02:17.091Z,97.11
2023-01-02T03:03:19.701Z,97.34
2023-01-02T03:04:21.516Z,97.57
2023-01-02T03:05:48.799Z,96.60
2023-01-02T03:07:02.746Z,96.04
2023-01-02T03:08:10.952Z,95.39
2023-01-02T03:09:51.969Z,95.05
2023-01-02T03:11:01.516Z,95.61
2023-01-02T03:12:06.905Z,95.36
2023-01-02T03:13:41.048Z,95.92
2023-01-02T03:15:05.872Z,95.81
2023-01-02T03:16:30.291Z,95.87
2023-01-02T03:17:26.908Z,96.44
2023-01-02T03:18:29.347Z,96.72
2023-01-02T03:19:41.906Z,96.66
2023-01-02T03:20:47.299Z,96.62
2023-01-02T03:21:58.161Z,97.08
2023-01-02T03:23:04.716Z,97.43
2023-01-02T03:24:08.777Z,97.80
2023-01-02T03:25:10.400Z,97.98
2023-01-02T03:26:07.508Z,97.86
2023-01-02T03:27:09.863Z,98.03
2023-01-02T03:28:09.983Z,97.50
2023-01-02T03:29:41.352Z,98.13
2023-01-02T03:30:41.165Z,98.63
2023-01-02T03:31:40.757Z,99.15
2023-01-02T03:32:43.743Z,98.90
2023-01-02T03:33:44.923Z,98.85
2023-01-02T03:34:45.779Z,98.81
2023-01-02T03:36:04.634Z,99.56
2023-01-02T03:37:08.373Z,99.78
2023-01-02T03:38:10.163Z,100.00
2023-01-02T03:39:18.713Z,100.00
2023-01-02T03:40:20.625Z,100.00
2023-01-02T03:41:38.013Z,99.88
2023-01-02T03:42:40.595Z,100.00
2023-01-02T03:43:40.994Z,100.00
2023-01-02T03:44:56.061Z,100.00
2023-01-02T03:46:04.688Z,100.00
2023-01-02T03:47:41.638Z,100.00
2023-01-02T03:48:41.142Z,100.00
2023-01-02T03:49:44.899Z,100.00
2023-01-02T03:50:50.036Z,100.00
2023-01-02T03:51:46.932Z,100.00
2023-01-02T03:52:43.693Z,100.00
2023-01-02T03:53:41.193Z,100.00
2023-01-02T03:54:38.555Z,100.00
2023-01-02T03:55:40.223Z,100.00
2023-01-02T03:56:55.345Z,100.00
2023-01-02T03:58:20.736Z,100.00
2023-01-02T03:59:43.134Z,100.00
2023-01-02T04:01:05.106Z,98.75
2023-01-02T04:02:24.904Z,97.25
2023-01-02T04:03:26.199Z,95.77
2023-01-02T04:04:37.147Z,95.64
2023-01-02T04:05:45.832Z,95.35
2023-01-02T04:06:48.281Z,96.69
2023-01-02T04:07:51.763Z,97.38
2023-01-02T04:08:56.167Z,97.78
2023-01-02T04:09:53.384Z,97.57
2023-01-02T04:10:58.237Z,97.72
2023-01-02T04:12:00.329Z,98.37
2023-01-02T04:13:02.609Z,99.01
2023-01-02T04:14:03.182Z,98.69
2023-01-02T04:15:05.111Z,98.63
2023-01-02T04:16:04.401Z,98.84
2023-01-02T04:17:04.950Z,100.00
2023-01-02T04:18:08.566Z,100.00
2023-01-02T04:19:12.483Z,100.00
2023-01-02T04:20:14.613Z,100.00
2023-01-02T04:21:17.538Z,100.00
2023-01-02T04:22:32.004Z,100.00
2023-01-02T04:23:42.779Z,100.00
2023-01-02T04:24:44.820Z,100.00
2023-01-02T04:25:47.822Z,99.23
2023-01-02T04:27:08.124Z,98.44
2023-01-02T04:28:25.633Z,99.49
2023-01-02T04:29:22.407Z,99.17
2023-01-02T04:30:19.273Z,99.76
2023-01-02T04:31:15.973Z,100.00
2023-01-02T04:32:20.336Z,99.45
2023-01-02T04:33:19.837Z,99.80
2023-01-02T04:34:18.521Z,100.00
2023-01-02T04:35:19.671Z,100.00
2023-01-02T04:36:16.768Z,99.75
2023-01-02T04:37:28.527Z,100.00
2023-01-02T04:38:25.084Z,100.00
2023-01-02T04:39:24.256Z,100.00
2023-01-02T04:40:23.644Z,100.00
2023-01-02T04:41:29.201Z,100.00
2023-01-02T04:42:25.992Z,100.00
2023-01-02T04:43:22.663Z,100.00
2023-01-02T04:44:19.375Z,100.00
2023-01-02T04:45:16.391Z,100.00
2023-01-02T04:46:13.096Z,100.00
2023-01-02T04:47:09.775Z,100.00
2023-01-02T04:48:06.480Z,100.00
2023-01-02T04:49:03.246Z,100.00
2023-01-02T04:49:59.813Z,100.00
2023-01-02T04:50:56.548Z,100.00
2023-01-02T04:51:53.176Z,99.98
2023-01-02T04:52:49.786Z,99.21
2023-01-02T04:53:50.866Z,99.03
2023-01-02T04:54:47.527Z,98.36
2023-01-02T04:55:44.055Z,98.85
2023-01-02T04:56:40.640Z,98.23
2023-01-02T04:57:38.242Z,98.32
2023-01-02T04:58:34.891Z,98.54
2023-01-02T04:59:31.582Z,99.18
2023-01-02T05:00:28.229Z,99.64
2023-01-02T05:01:24.902Z,99.66
2023-01-02T05:02:21.744Z,100.00
2023-01-02T05:03:18.499Z,100.00
2023-01-02T05:04:15.186Z,100.00
2023-01-02T05:05:11.851Z,99.85
2023-01-02T05:06:09.310Z,100.00
2023-01-02T05:07:06.852Z,100.00
2023-01-02T05:08:03.587Z,100.00
2023-01-02T05:09:00.239Z,100.00
2023-01-02T05:09:56.805Z,100.00
2023-01-02T05:10:53.455Z,100.00
2023-01-02T05:11:50.217Z,100.00
2023-01-02T05:12:46.882Z,99.71
2023-01-02T05:13:44.262Z,99.73
2023-01-02T05:14:40.873Z,99.64
2023-01-02T05:15:37.519Z,99.45
2023-01-02T05:16:34.308Z,99.24
2023-01-02T05:17:35.584Z,99.76
2023-01-02T05:18:32.474Z,99.77
2023-01-02T05:19:29.061Z,100.00
2023-01-02T05:20:25.749Z,100.00
2023-01-02T05:21:40.915Z,100.00
2023-01-02T05:23:00.001Z,100.00
2023-01-02T05:23:58.468Z,100.00
2023-01-02T05:24:55.194Z,99.50
2023-01-02T05:25:51.787Z,99.81
2023-01-02T05:26:48.484Z,100.00
2023-01-02T05:27:45.860Z,100.00
2023-01-02T05:28:42.563Z,100.00
2023-01-02T05:29:39.143Z,100.00
2023-01-02T05:30:38.466Z,100.00
2023-01-02T05:31:35.113Z,100.00
2023-01-02T05:32:31.787Z,100.00
2023-01-02T05:33:28.478Z,100.00
2023-01-02T05:34:25.166Z,100.00
2023-01-02T05:35:25.642Z,100.00
2023-01-02T05:36:26.648Z,100.00
2023-01-02T05:37:23.529Z,100.00
2023-01-02T05:38:20.116Z,100.00
2023-01-02T05:39:16.909Z,100.00
2023-01-02T05:40:13.543Z,100.00
2023-01-02T05:41:10.157Z,100.00
2023-01-02T05:42:06.776Z,100.00
2023-01-02T05:43:03.382Z,100.00
2023-01-02T05:43:59.952Z,100.00
2023-01-02T05:44:56.839Z,100.00
2023-01-02T05:45:53.509Z,100.00
2023-01-02T05:46:50.142Z,100.00
2023-01-02T05:47:46.748Z,100.00
2023-01-02T05:48:44.281Z,100.00
2023-01-02T05:49:40.983Z,100.00
2023-01-02T05:50:37.646Z,100.00
2023-01-02T05:51:34.677Z,100.00
2023-01-02T05:52:31.281Z,100.00
2023-01-02T05:53:28.040Z,100.00
2023-01-02T05:54:24.720Z,100.00
2023-01-02T05:55:21.342Z,100.00
2023-01-02T05:56:18.818Z,100.00
2023-01-02T05:57:16.033Z,100.00
2023-01-02T05:58:12.604Z,100.00
2023-01-02T05:59:09.280Z,100.00
2023-01-02T06:00:06.321Z,99.98
2023-01-02T06:01:11.731Z,99.48
2023-01-02T06:02:08.497Z,99.22
2023-01-02T06:03:05.314Z,99.11
2023-01-02T06:04:02.426Z,99.36
2023-01-02T06:04:59.113Z,99.99
2023-01-02T06:05:55.763Z,99.38
2023-01-02T06:06:52.329Z,99.77
2023-01-02T06:07:48.899Z,99.31
2023-01-02T06:08:45.476Z,98.72
2023-01-02T06:09:42.301Z,98.98
2023-01-02T06:10:38.925Z,99.30
2023-01-02T06:11:36.587Z,98.51
2023-01-02T06:12:33.231Z,99.13
2023-01-02T06:13:30.594Z,99.50
2023-01-02T06:14:27.535Z,99.87
2023-01-02T06:15:24.777Z,99.63
2023-01-02T06:16:22.455Z,100.00
2023-01-02T06:17:19.138Z,100.00
2023-01-02T06:18:15.736Z,100.00
2023-01-02T06:19:12.317Z,100.00
2023-01-02T06:20:09.584Z,100.00
2023-01-02T06:21:12.228Z,100.00
2023-01-02T06:22:08.849Z,100.00
2023-01-02T06:23:05.436Z,100.00
2023-01-02T06:24:02.132Z,100.00
2023-01-02T06:24:58.683Z,100.00
2023-01-02T06:25:55.769Z,100.00
2023-01-02T06:26:52.409Z,100.00
2023-01-02T06:27:49.012Z,100.00
2023-01-02T06:28:49.012Z,100.00
2023-01-02T06:29:45.547Z,100.00
2023-01-02T06:30:42.153Z,100.00
2023-01-02T06:31:39.979Z,100.00
2023-01-02T06:32:37.196Z,100.00
2023-01-02T06:33:33.888Z,99.86
2023-01-02T06:34:30.476Z,100.00
2023-01-02T06:35:27.172Z,99.75
2023-01-02T06:36:24.255Z,99.76
2023-01-02T06:37:20.976Z,99.43
2023-01-02T06:38:17.599Z,99.71
2023-01-02T06:39:14.226Z,99.26
2023-01-02T06:40:13.981Z,99.80
2023-01-02T06:41:10.677Z,98.82
2023-01-02T06:42:07.197Z,98.80
2023-01-02T06:43:03.811Z,98.48
2023-01-02T06:44:00.402Z,98.92
2023-01-02T06:44:56.995Z,98.45
2023-01-02T06:45:53.853Z,97.80
2023-01-02T06:46:50.526Z,97.66
2023-01-02T06:47:47.125Z,97.45
2023-01-02T06:48:44.192Z,97.60
2023-01-02T06:49:40.811Z,96.76
2023-01-02T06:50:37.414Z,96.21
2023-01-02T06:51:34.001Z,95.91
2023-01-02T06:52:30.568Z,96.08
2023-01-02T06:53:27.321Z,95.58
2023-01-02T06:54:23.933Z,95.02
2023-01-02T06:55:20.639Z,94.67
2023-01-02T06:56:18.584Z,94.48
2023-01-02T06:57:15.243Z,94.71
2023-01-02T06:58:17.580Z,94.21
2023-01-02T06:59:15.918Z,94.77
2023-01-02T07:00:13.176Z,94.69
2023-01-02T07:01:13.780Z,94.78
2023-01-02T07:02:13.908Z,94.27
2023-01-02T07:03:10.617Z,94.36
2023-01-02T07:04:07.219Z,94.88
2023-01-02T07:05:04.330Z,94.53
2023-01-02T07:06:06.776Z,94.97
2023-01-02T07:07:04.267Z,94.75
2023-01-02T07:08:00.962Z,94.32
2023-01-02T07:08:57.526Z,94.05
2023-01-02T07:09:54.090Z,94.09
2023-01-02T07:10:53.041Z,93.95
2023-01-02T07:11:50.018Z,93.67
2023-01-02T07:12:46.626Z,93.34
2023-01-02T07:13:44.316Z,92.55
2023-01-02T07:14:40.952Z,92.67
2023-01-02T07:15:37.680Z,92.86
2023-01-02T07:16:34.349Z,93.15
2023-01-02T07:17:32.440Z,93.20
2023-01-02T07:18:29.048Z,92.45
2023-01-02T07:19:25.681Z,92.24
2023-01-02T07:20:22.291Z,91.95
2023-01-02T07:21:18.909Z,91.92
2023-01-02T07:22:15.449Z,92.33
2023-01-02T07:23:12.097Z,92.85
2023-01-02T07:24:17.759Z,92.17
2023-01-02T07:25:14.356Z,91.54
2023-01-02T07:26:11.671Z,91.63
2023-01-02T07:27:08.300Z,91.32
2023-01-02T07:28:05.021Z,90.82
2023-01-02T07:29:01.710Z,90.62
2023-01-02T07:29:58.434Z,90.63
2023-01-02T07:30:59.700Z,90.09
2023-01-02T07:31:56.389Z,89.94
2023-01-02T07:32:53.609Z,89.82
2023-01-02T07:33:50.333Z,89.50
2023-01-02T07:34:46.974Z,89.20
2023-01-02T07:35:44.237Z,88.89
2023-01-02T07:36:40.833Z,88.37
2023-01-02T07:37:37.597Z,88.27
2023-01-02T07:38:35.187Z,87.47
2023-01-02T07:39:31.741Z,86.50
2023-01-02T07:40:32.085Z,86.50
2023-01-02T07:41:29.135Z,86.73
2023-01-02T07:42:25.728Z,86.72
2023-01-02T07:43:22.424Z,86.90
2023-01-02T07:44:19.067Z,86.16
2023-01-02T07:45:15.780Z,85.92
2023-01-02T07:46:14.289Z,84.99
2023-01-02T07:47:10.952Z,83.27
2023-01-02T07:48:07.502Z,81.88
2023-01-02T07:49:04.092Z,81.17
2023-01-02T07:50:00.702Z,80.50
2023-01-02T07:51:05.189Z,81.70
2023-01-02T07:52:01.800Z,81.62
2023-01-02T07:52:58.431Z,81.79
2023-01-02T07:53:55.613Z,80.89
2023-01-02T07:54:52.206Z,80.75
2023-01-02T07:55:54.375Z,81.13
2023-01-02T07:56:52.138Z,81.89
2023-01-02T07:57:48.736Z,81.29
2023-01-02T07:58:45.341Z,81.51
2023-01-02T07:59:44.947Z,82.07
2023-01-02T08:00:41.528Z,82.04
2023-01-02T08:01:38.249Z,82.46
2023-01-02T08:02:34.968Z,82.41
2023-01-02T08:03:31.963Z,82.68
2023-01-02T08:04:28.701Z,83.35
2023-01-02T08:05:25.577Z,82.85
2023-01-02T08:06:22.277Z,80.21
2023-01-02T08:07:19.035Z,78.68
2023-01-02T08:08:15.627Z,78.59
2023-01-02T08:09:12.187Z,80.06
2023-01-02T08:10:08.914Z,80.13
2023-01-02T08:11:11.678Z,79.44
2023-01-02T08:12:08.240Z,78.29
2023-01-02T08:13:08.084Z,78.33
2023-01-02T08:14:05.192Z,77.96
2023-01-02T08:15:02.029Z,78.51
2023-01-02T08:16:20.332Z,78.30
2023-01-02T08:17:16.985Z,79.80
2023-01-02T08:18:13.601Z,80.95
2023-01-02T08:19:10.254Z,81.22
2023-01-02T08:20:08.526Z,81.28
2023-01-02T08:21:06.219Z,81.22
2023-01-02T08:22:02.803Z,82.03
2023-01-02T08:22:59.351Z,81.27
2023-01-02T08:23:55.981Z,81.60
2023-01-02T08:24:52.615Z,81.54
2023-01-02T08:25:54.080Z,81.79
2023-01-02T08:26:53.961Z,81.11
2023-01-02T08:27:50.563Z,81.76
2023-01-02T08:28:47.211Z,82.30
2023-01-02T08:29:43.957Z,82.00
2023-01-02T08:30:41.266Z,82.08
2023-01-02T08:31:43.471Z,81.60
2023-01-02T08:32:40.864Z,80.44
2023-01-02T08:33:37.653Z,80.29
2023-01-02T08:34:35.119Z,80.36
2023-01-02T08:35:38.512Z,80.15
2023-01-02T08:36:35.760Z,80.26
2023-01-02T08:37:32.372Z,78.10
2023-01-02T08:38:29.008Z,76.81
2023-01-02T08:39:25.633Z,77.24
2023-01-02T08:40:22.555Z,77.54
2023-01-02T08:41:36.947Z,78.08
2023-01-02T08:42:33.579Z,79.73
2023-01-02T08:43:34.399Z,79.80
2023-01-02T08:44:30.970Z,80.69
2023-01-02T08:45:28.072Z,80.71
2023-01-02T08:46:24.705Z,80.56
2023-01-02T08:47:21.309Z,80.31
2023-01-02T08:48:21.017Z,79.44
2023-01-02T08:49:18.487Z,78.55
2023-01-02T08:50:15.154Z,77.95
2023-01-02T08:51:11.796Z,76.31
2023-01-02T08:52:08.437Z,76.35
2023-01-02T08:53:10.777Z,75.90
2023-01-02T08:54:09.333Z,76.05
2023-01-02T08:55:06.559Z,77.84
2023-01-02T08:56:29.224Z,77.63
2023-01-02T08:57:25.867Z,77.58
2023-01-02T08:58:22.531Z,77.67
2023-01-02T08:59:19.539Z,76.27
2023-01-02T09:00:16.471Z,75.27
2023-01-02T09:01:13.107Z,75.59
2023-01-02T09:02:14.363Z,75.34
2023-01-02T09:03:11.158Z,76.04
2023-01-02T09:04:12.342Z,76.62
2023-01-02T09:05:09.902Z,77.49
2023-01-02T09:06:06.534Z,77.39
2023-01-02T09:07:03.170Z,76.39
2023-01-02T09:08:01.869Z,76.97
2023-01-02T09:08:59.660Z,76.62
2023-01-02T09:09:56.256Z,74.48
2023-01-02T09:10:52.924Z,73.20
2023-01-02T09:11:51.983Z,74.84
2023-01-02T09:12:48.630Z,75.99
2023-01-02T09:13:45.346Z,75.64
2023-01-02T09:14:42.067Z,74.32
2023-01-02T09:15:38.769Z,74.21
2023-01-02T09:16:35.427Z,74.73
2023-01-02T09:17:31.981Z,75.66
2023-01-02T09:18:29.682Z,75.37
2023-01-02T09:19:27.018Z,75.75
2023-01-02T09:20:23.966Z,76.91
2023-01-02T09:21:20.560Z,76.93
2023-01-02T09:22:17.193Z,77.38
2023-01-02T09:23:13.809Z,77.20
2023-01-02T09:24:10.852Z,76.29
2023-01-02T09:25:08.003Z,75.78
2023-01-02T09:26:10.947Z,75.89
2023-01-02T09:27:07.539Z,76.34
2023-01-02T09:28:04.311Z,75.00
2023-01-02T09:29:01.117Z,74.80
2023-01-02T09:29:57.759Z,75.57
2023-01-02T09:30:55.043Z,74.22
2023-01-02T09:31:51.716Z,74.74
2023-01-02T09:32:50.734Z,75.77
2023-01-02T09:33:48.274Z,73.61
2023-01-02T09:34:50.301Z,72.13
2023-01-02T09:35:46.878Z,73.60
2023-01-02T09:36:43.531Z,74.74
2023-01-02T09:37:40.161Z,75.40
2023-01-02T09:38:37.052Z,74.95
2023-01-02T09:39:33.621Z,73.27
2023-01-02T09:40:32.018Z,73.40
2023-01-02T09:41:51.740Z,73.22
2023-01-02T09:42:51.770Z,72.58
2023-01-02T09:44:04.615Z,72.77
2023-01-02T09:45:08.569Z,72.78
2023-01-02T09:46:13.592Z,72.24
2023-01-02T09:47:25.903Z,73.40
2023-01-02T09:48:22.601Z,75.42
2023-01-02T09:49:26.239Z,75.42
2023-01-02T09:50:28.004Z,73.66
2023-01-02T09:51:24.634Z,73.71
2023-01-02T09:52:38.296Z,75.70
2023-01-02T09:53:35.396Z,75.11
2023-01-02T09:54:33.791Z,73.97
2023-01-02T09:55:43.415Z,73.81
2023-01-02T09:56:42.417Z,73.82
2023-01-02T09:58:06.100Z,73.61
2023-01-02T09:59:10.719Z,74.66
2023-01-02T10:00:17.101Z,74.14
2023-01-02T10:01:24.804Z,73.16
2023-01-02T10:02:40.252Z,72.48
2023-01-02T10:04:14.149Z,73.04
2023-01-02T10:05:28.976Z,74.00
2023-01-02T10:06:35.740Z,72.55
2023-01-02T10:07:47.884Z,70.86
2023-01-02T10:08:50.473Z,72.71
2023-01-02T10:09:59.896Z,73.10
2023-01-02T10:11:08.605Z,73.22
2023-01-02T10:12:25.305Z,73.53
2023-01-02T10:14:08.360Z,74.28
2023-01-02T10:14:59.567Z,74.27
2023-01-02T10:16:00.592Z,74.81
2023-01-02T10:17:00.461Z,74.84
2023-01-02T10:18:15.278Z,75.16
2023-01-02T10:19:20.145Z,76.03
2023-01-02T10:20:45.688Z,75.04
2023-01-02T10:21:45.379Z,74.30
2023-01-02T10:22:51.448Z,75.04
2023-01-02T10:24:14.219Z,75.80
2023-01-02T10:25:26.821Z,74.68
2023-01-02T10:26:28.281Z,75.20
2023-01-02T10:27:32.921Z,74.27
2023-01-02T10:28:49.352Z,73.68
2023-01-02T10:29:54.429Z,73.49
2023-01-02T10:31:05.408Z,73.21
2023-01-02T10:32:15.308Z,72.13
2023-01-02T10:33:32.389Z,71.64
2023-01-02T10:34:45.314Z,69.89
2023-01-02T10:35:45.790Z,69.37
2023-01-02T10:36:44.108Z,70.59
2023-01-02T10:37:40.747Z,71.53
2023-01-02T10:38:39.448Z,71.02
2023-01-02T10:39:36.098Z,70.70
2023-01-02T10:40:33.837Z,70.14
2023-01-02T10:41:31.613Z,69.58
2023-01-02T10:42:31.225Z,69.81
2023-01-02T10:43:29.398Z,69.01
2023-01-02T10:44:29.975Z,69.33
2023-01-02T10:45:26.724Z,69.99
2023-01-02T10:46:23.453Z,69.54
2023-01-02T10:47:37.849Z,69.53
2023-01-02T10:48:37.396Z,68.76
2023-01-02T10:49:37.803Z,69.93
2023-01-02T10:50:42.021Z,69.54
2023-01-02T10:51:45.678Z,68.81
2023-01-02T10:53:04.765Z,68.58
2023-01-02T10:54:09.576Z,68.70
2023-01-02T10:55:06.557Z,68.69
2023-01-02T10:56:05.673Z,69.00
2023-01-02T10:57:02.300Z,67.64
2023-01-02T10:58:05.252Z,67.55
2023-01-02T10:59:02.907Z,68.35
2023-01-02T11:00:01.325Z,68.09
2023-01-02T11:01:05.945Z,67.75
2023-01-02T11:02:02.686Z,69.05
2023-01-02T11:03:12.358Z,69.63
2023-01-02T11:04:13.132Z,68.79
2023-01-02T11:05:20.200Z,67.01
2023-01-02T11:06:28.226Z,65.99
2023-01-02T11:07:27.096Z,65.87
2023-01-02T11:08:34.339Z,67.03
2023-01-02T11:09:35.980Z,66.63
2023-01-02T11:10:35.092Z,66.90
2023-01-02T11:11:32.631Z,67.84
2023-01-02T11:12:29.245Z,67.45
2023-01-02T11:13:25.817Z,67.48
2023-01-02T11:14:34.100Z,66.44
2023-01-02T11:15:34.703Z,66.29
2023-01-02T11:16:33.189Z,64.85
2023-01-02T11:17:30.718Z,65.82
2023-01-02T11:18:31.160Z,65.87
2023-01-02T11:19:30.026Z,65.57
2023-01-02T11:20:33.784Z,66.39
2023-01-02T11:21:33.149Z,67.37
2023-01-02T11:22:36.259Z,67.88
2023-01-02T11:23:39.804Z,66.73
2023-01-02T11:25:05.630Z,67.65
2023-01-02T11:26:04.467Z,65.64
2023-01-02T11:27:02.788Z,65.69
2023-01-02T11:28:00.905Z,64.38
2023-01-02T11:29:07.142Z,63.23
2023-01-02T11:30:09.657Z,64.57
2023-01-02T11:31:10.081Z,64.30
2023-01-02T11:32:06.914Z,64.52
2023-01-02T11:33:19.384Z,64.80
2023-01-02T11:34:22.499Z,65.05
2023-01-02T11:35:36.450Z,63.16
2023-01-02T11:36:33.334Z,63.58
2023-01-02T11:37:29.974Z,64.71
2023-01-02T11:38:39.843Z,66.07
2023-01-02T11:39:36.631Z,65.68
2023-01-02T11:40:33.692Z,65.14
2023-01-02T11:42:08.159Z,66.17
2023-01-02T11:43:29.334Z,65.53
2023-01-02T11:44:31.662Z,64.92
2023-01-02T11:45:30.788Z,65.11
2023-01-02T11:46:29.577Z,64.52
2023-01-02T11:47:32.868Z,65.21
2023-01-02T11:48:29.777Z,64.86
2023-01-02T11:49:31.908Z,64.37
2023-01-02T11:50:31.726Z,64.61
2023-01-02T11:51:29.974Z,64.13
2023-01-02T11:52:34.849Z,64.98
2023-01-02T11:53:40.647Z,63.92
2023-01-02T11:54:44.230Z,62.99
2023-01-02T11:55:43.827Z,63.12
2023-01-02T11:56:44.203Z,63.44
2023-01-02T11:57:49.982Z,64.55
2023-01-02T11:59:00.608Z,64.32
2023-01-02T12:00:01.463Z,64.06
2023-01-02T12:01:22.722Z,64.49
2023-01-02T12:02:36.469Z,63.29
2023-01-02T12:03:34.746Z,65.81
2023-01-02T12:04:31.795Z,65.16
2023-01-02T12:05:37.323Z,64.98
2023-01-02T12:06:39.701Z,64.34
2023-01-02T12:07:44.266Z,65.40
2023-01-02T12:09:06.959Z,66.93
2023-01-02T12:10:50.395Z,65.62
2023-01-02T12:11:46.938Z,64.79
2023-01-02T12:12:43.429Z,64.78
2023-01-02T12:13:58.725Z,62.99
2023-01-02T12:15:07.106Z,63.36
2023-01-02T12:16:41.990Z,63.85
2023-01-02T12:17:53.448Z,63.90
2023-01-02T12:19:02.419Z,64.05
2023-01-02T12:20:21.078Z,64.14
2023-01-02T12:21:57.120Z,63.83
2023-01-02T12:23:11.227Z,63.77
2023-01-02T12:24:07.806Z,63.72
2023-01-02T12:25:28.799Z,63.73
2023-01-02T12:26:42.078Z,63.50
2023-01-02T12:27:46.807Z,63.19
2023-01-02T12:29:05.252Z,62.60
2023-01-02T12:30:15.219Z,63.57
2023-01-02T12:31:30.143Z,64.10
2023-01-02T12:32:54.758Z,64.03
2023-01-02T12:34:23.694Z,63.87
2023-01-02T12:35:56.794Z,65.14
2023-01-02T12:37:23.548Z,65.48
2023-01-02T12:38:33.071Z,65.92
2023-01-02T12:40:26.873Z,66.14
2023-01-02T12:41:33.385Z,64.67
2023-01-02T12:43:09.178Z,64.16
2023-01-02T12:44:17.615Z,64.72
2023-01-02T12:45:35.259Z,64.71
2023-01-02T12:46:40.968Z,64.54
2023-01-02T12:47:47.202Z,64.54
2023-01-02T12:49:11.301Z,63.46
2023-01-02T12:50:28.143Z,64.27
2023-01-02T12:51:47.575Z,63.60
2023-01-02T12:53:03.197Z,64.16
2023-01-02T12:54:18.721Z,64.50
2023-01-02T12:55:45.279Z,66.03
2023-01-02T12:57:02.309Z,64.26
2023-01-02T12:58:14.470Z,65.23
2023-01-02T12:59:30.063Z,65.13
2023-01-02T13:00:48.499Z,65.42
2023-01-02T13:02:23.988Z,64.04
2023-01-02T13:03:22.534Z,64.52
2023-01-02T13:04:29.452Z,64.55
2023-01-02T13:05:32.944Z,64.51
2023-01-02T13:06:43.526Z,64.48
2023-01-02T13:08:13.141Z,64.03
2023-01-02T13:09:25.177Z,64.12
2023-01-02T13:10:25.139Z,65.36
2023-01-02T13:11:30.154Z,64.82
2023-01-02T13:12:30.175Z,64.37
2023-01-02T13:13:33.555Z,65.23
2023-01-02T13:14:35.979Z,64.31
2023-01-02T13:15:36.303Z,65.17
2023-01-02T13:16:35.220Z,65.29
2023-01-02T13:17:40.892Z,64.45